PASV/SVW METAR and TAF weather

Enter ICAO airport designator
Station Type Date Time Source
PASV METAR 2019/08/22 08:55 UTC NOAA

PASV 220855Z AUTO 00000KT 10SM CLR 11/03 A2963 RMK AO2 LTG DSNT NE SLP030 T01070025 401650064 57004


Station Type Date Time Source
PASV Decoded METAR 2019/08/22 08:55 UTC NOAA

Station name not available
Aug 22, 2019 - 04:55 AM EDT / 2019.08.22 0855 UTC
Wind: Calm:0
Visibility: 10 mile(s):0
Sky conditions: clear
Weather: Lightning observed
Temperature: 51.3 F (10.7 C)
Dew Point: 36.5 F (2.5 C)
Relative Humidity: 56%
Pressure (altimeter): 29.63 in. Hg (1003 hPa)
Pressure tendency: 0.01 inches (0.4 hPa) lower than three hours ago
ob: PASV 220855Z AUTO 00000KT 10SM CLR 11/03 A2963 RMK AO2 LTG DSNT NE SLP030 T01070025 401650064 57004
cycle: 9

Station Type Date Time Source
PASV TAF 2012/01/12 14:57 UTC NOAA

TAF
AMD PASV 1214/1320 33010G15KT 4800 -SN BLSN SCT003 SCT110 QNH2984INS
BECMG 1221/1222 VRB06KT 9999 NSW FEW010 SCT110 QNH3000INS LIMITED METWATCH TM25/1300Z TM37/1315Z
AMD 121453

Example: see airport list